Aline, Oklahoma
Current Conditions -  °F | °C
As of 4:30 AM on Monday 26 Jan 2015 (Local Time) from KAVK Reporting Station
Broken Clouds Broken Clouds  
Wind Chill: 22°   Ceiling: 1500
Heat Index: 28°   Visibility: 10mi
Dew Point: 21°   Wind: 6mph
Humidity: 74%   Direction: 220°SW
Pressure: 30.12"   Gusts: NA
Location:  36.51°N, 98.45°W
Report Text: KAVK 261030Z AUTO 22005KT 10SM BKN015 BKN020 M02/M06 A3012 RMK AO2
Loading
Personal Weather Stations






























Interactive Weather Map New forecast layout! Learn more

10-Day Weather Forecast

Advertisements
Track Severe Weather on mobile